createdAt,value
2018-08-03T00:01:37.110Z,4.37
2018-08-03T00:04:06.018Z,4.77
2018-08-03T00:06:34.728Z,4.70
2018-08-03T00:09:05.665Z,4.20
2018-08-03T00:11:34.484Z,4.90
2018-08-03T00:14:03.412Z,4.97
2018-08-03T00:16:32.447Z,5.00
2018-08-03T00:19:01.431Z,5.20
2018-08-03T00:21:30.417Z,4.60
2018-08-03T00:23:59.426Z,5.27
2018-08-03T00:26:28.241Z,5.63
2018-08-03T00:28:57.096Z,4.70
2018-08-03T00:31:25.890Z,4.40
2018-08-03T00:33:54.821Z,5.17
2018-08-03T00:36:23.619Z,5.20
2018-08-03T00:38:52.456Z,5.03
2018-08-03T00:41:21.118Z,5.90
2018-08-03T00:43:50.186Z,4.63
2018-08-03T00:46:19.040Z,5.27
2018-08-03T00:48:47.725Z,5.33
2018-08-03T00:51:16.331Z,5.60
2018-08-03T00:53:45.180Z,5.83
2018-08-03T00:56:13.972Z,5.50
2018-08-03T00:58:43.717Z,5.80
2018-08-03T01:01:12.530Z,5.20
2018-08-03T01:03:41.743Z,5.33
2018-08-03T01:06:10.526Z,6.23
2018-08-03T01:08:39.398Z,6.40
2018-08-03T01:11:08.334Z,6.00
2018-08-03T01:13:37.402Z,5.80
2018-08-03T01:16:06.307Z,6.63
2018-08-03T01:18:35.102Z,6.03
2018-08-03T01:21:03.975Z,5.80
2018-08-03T01:23:32.740Z,5.60
2018-08-03T01:26:01.627Z,6.23
2018-08-03T01:28:30.418Z,6.33
2018-08-03T01:30:59.251Z,6.00
2018-08-03T01:33:28.041Z,6.27
2018-08-03T01:35:56.938Z,7.00
2018-08-03T01:38:25.718Z,6.77
2018-08-03T01:40:54.617Z,6.27
2018-08-03T01:43:23.495Z,5.70
2018-08-03T01:45:58.279Z,5.70
2018-08-03T01:48:27.131Z,5.93
2018-08-03T01:50:55.958Z,5.90
2018-08-03T01:53:24.594Z,6.20
2018-08-03T01:55:53.437Z,6.40
2018-08-03T01:58:22.040Z,6.03
2018-08-03T02:00:51.263Z,5.97
2018-08-03T02:03:20.136Z,6.20
2018-08-03T02:05:48.806Z,6.37
2018-08-03T02:08:17.392Z,6.77
2018-08-03T02:10:46.231Z,6.77
2018-08-03T02:13:15.106Z,6.73
2018-08-03T02:15:43.893Z,6.80
2018-08-03T02:18:12.763Z,7.10
2018-08-03T02:20:41.587Z,6.73
2018-08-03T02:23:10.419Z,7.83
2018-08-03T02:25:40.356Z,6.90
2018-08-03T02:28:09.189Z,7.53
2018-08-03T02:30:37.963Z,7.23
2018-08-03T02:33:06.786Z,7.80
2018-08-03T02:35:35.556Z,7.93
2018-08-03T02:38:04.484Z,8.00
2018-08-03T02:40:33.323Z,7.90
2018-08-03T02:43:02.298Z,7.83
2018-08-03T02:45:37.176Z,8.10
2018-08-03T02:48:06.235Z,7.93
2018-08-03T02:50:35.044Z,7.77
2018-08-03T02:53:03.854Z,8.57
2018-08-03T02:55:32.636Z,8.60
2018-08-03T02:58:01.499Z,7.77
2018-08-03T03:00:30.341Z,6.90
2018-08-03T03:02:59.218Z,6.87
2018-08-03T03:05:28.031Z,7.40
2018-08-03T03:07:56.852Z,7.83
2018-08-03T03:10:25.663Z,8.03
2018-08-03T03:12:54.614Z,7.30
2018-08-03T03:15:23.430Z,7.27
2018-08-03T03:17:52.191Z,9.10
2018-08-03T03:20:21.007Z,8.40
2018-08-03T03:22:49.854Z,9.30
2018-08-03T03:25:18.741Z,9.67
2018-08-03T03:27:47.486Z,10.20
2018-08-03T03:30:16.282Z,9.43
2018-08-03T03:32:45.172Z,9.77
2018-08-03T03:35:13.987Z,9.50
2018-08-03T03:37:42.822Z,9.60
2018-08-03T03:40:11.431Z,9.73
2018-08-03T03:42:40.229Z,9.67
2018-08-03T03:45:09.068Z,9.40
2018-08-03T03:47:37.847Z,9.53
2018-08-03T03:50:07.182Z,9.27
2018-08-03T03:52:35.810Z,9.73
2018-08-03T03:55:04.897Z,9.57
2018-08-03T03:57:33.708Z,9.27
2018-08-03T04:00:02.789Z,9.67
2018-08-03T04:02:31.537Z,9.40
2018-08-03T04:05:00.420Z,9.53
2018-08-03T04:07:29.272Z,9.50
2018-08-03T04:09:58.150Z,9.20
2018-08-03T04:12:27.020Z,9.83
2018-08-03T04:14:55.932Z,9.03
2018-08-03T04:17:24.782Z,9.43
2018-08-03T04:19:53.603Z,9.27
2018-08-03T04:22:22.455Z,9.53
2018-08-03T04:24:51.255Z,9.50
2018-08-03T04:27:20.131Z,9.70
2018-08-03T04:29:48.880Z,9.53
2018-08-03T04:32:17.767Z,8.90
2018-08-03T04:34:46.587Z,9.90
2018-08-03T04:37:15.409Z,8.57
2018-08-03T04:39:44.367Z,9.30
2018-08-03T04:42:13.265Z,9.47
2018-08-03T04:44:42.051Z,9.67
2018-08-03T04:47:11.146Z,10.13
2018-08-03T04:49:39.908Z,9.50
2018-08-03T04:52:08.652Z,9.33
2018-08-03T04:54:37.466Z,9.30
2018-08-03T04:57:06.323Z,9.70
2018-08-03T04:59:35.563Z,9.77
2018-08-03T05:02:04.443Z,9.33
2018-08-03T05:04:33.312Z,9.47
2018-08-03T05:07:02.218Z,9.20
2018-08-03T05:09:30.829Z,9.57
2018-08-03T05:11:59.709Z,8.57
2018-08-03T05:14:28.613Z,9.70
2018-08-03T05:16:57.317Z,8.77
2018-08-03T05:19:26.141Z,9.40
2018-08-03T05:21:54.938Z,9.93
2018-08-03T05:24:23.811Z,9.03
2018-08-03T05:26:52.621Z,8.67
2018-08-03T05:29:21.900Z,9.37
2018-08-03T05:31:50.693Z,9.80
2018-08-03T05:34:19.524Z,9.33
2018-08-03T05:36:48.185Z,9.10
2018-08-03T05:39:16.987Z,9.10
2018-08-03T05:41:45.871Z,8.50
2018-08-03T05:44:14.701Z,9.23
2018-08-03T05:46:43.522Z,9.20
2018-08-03T05:49:12.311Z,9.37
2018-08-03T05:51:41.375Z,9.43
2018-08-03T05:54:10.230Z,8.60
2018-08-03T05:56:39.087Z,9.37
2018-08-03T05:59:07.866Z,8.90
2018-08-03T06:01:36.745Z,9.17
2018-08-03T06:04:05.651Z,9.20
2018-08-03T06:06:34.537Z,10.17
2018-08-03T06:09:05.404Z,9.23
2018-08-03T06:11:34.211Z,9.57
2018-08-03T06:14:03.314Z,9.43
2018-08-03T06:16:31.955Z,9.17
2018-08-03T06:19:00.877Z,8.93
2018-08-03T06:21:30.106Z,9.07
2018-08-03T06:23:59.048Z,8.07
2018-08-03T06:26:27.868Z,9.57
2018-08-03T06:28:56.664Z,8.97
2018-08-03T06:31:25.936Z,9.00
2018-08-03T06:33:54.724Z,9.30
2018-08-03T06:36:23.607Z,9.10
2018-08-03T06:38:52.390Z,9.27
2018-08-03T06:41:21.311Z,8.70
2018-08-03T06:43:50.546Z,8.13
2018-08-03T06:46:19.206Z,7.50
2018-08-03T06:48:48.071Z,7.80
2018-08-03T06:51:17.259Z,7.70
2018-08-03T06:53:46.153Z,8.00
2018-08-03T06:56:14.988Z,8.17
2018-08-03T06:58:43.817Z,8.23
2018-08-03T07:01:12.667Z,7.20
2018-08-03T07:03:41.438Z,8.53
2018-08-03T07:06:10.252Z,8.20
2018-08-03T07:08:39.196Z,8.80
2018-08-03T07:11:08.160Z,8.60
2018-08-03T07:13:36.971Z,8.20
2018-08-03T07:16:05.819Z,7.50
2018-08-03T07:18:34.670Z,8.33
2018-08-03T07:21:03.620Z,8.33
2018-08-03T07:23:32.438Z,7.40
2018-08-03T07:26:01.265Z,7.77
2018-08-03T07:28:30.058Z,7.80
2018-08-03T07:30:58.859Z,7.83
2018-08-03T07:33:27.730Z,7.60
2018-08-03T07:35:56.569Z,8.13
2018-08-03T07:38:25.226Z,9.37
2018-08-03T07:40:54.014Z,9.97
2018-08-03T07:43:23.077Z,9.70
2018-08-03T07:45:57.739Z,8.37
2018-08-03T07:48:26.565Z,8.63
2018-08-03T07:50:56.012Z,9.07
2018-08-03T07:53:24.867Z,8.80
2018-08-03T07:55:53.847Z,8.07
2018-08-03T07:58:22.619Z,7.17
2018-08-03T08:00:51.460Z,8.07
2018-08-03T08:03:20.651Z,7.20
2018-08-03T08:05:49.470Z,7.73
2018-08-03T08:08:18.387Z,7.03
2018-08-03T08:10:47.196Z,7.80
2018-08-03T08:13:16.032Z,7.40
2018-08-03T08:15:44.887Z,6.93
2018-08-03T08:18:13.692Z,7.23
2018-08-03T08:20:42.515Z,6.63
2018-08-03T08:23:11.351Z,6.70
2018-08-03T08:25:40.166Z,6.90
2018-08-03T08:28:09.015Z,7.73
2018-08-03T08:30:37.785Z,6.30
2018-08-03T08:33:06.759Z,6.40
2018-08-03T08:35:35.567Z,6.87
2018-08-03T08:38:04.456Z,7.00
2018-08-03T08:40:33.238Z,6.90
2018-08-03T08:43:02.110Z,7.03
2018-08-03T08:45:30.926Z,6.57
2018-08-03T08:47:59.743Z,6.57
2018-08-03T08:50:28.557Z,6.77
2018-08-03T08:52:57.878Z,6.60
2018-08-03T08:55:26.669Z,5.97
2018-08-03T08:57:55.606Z,6.40
2018-08-03T09:00:24.241Z,6.20
2018-08-03T09:02:53.071Z,6.00
2018-08-03T09:05:21.968Z,6.83
2018-08-03T09:07:51.136Z,6.90
2018-08-03T09:10:24.575Z,7.00
2018-08-03T09:12:53.379Z,6.30
2018-08-03T09:15:22.230Z,6.70
2018-08-03T09:17:51.068Z,6.70
2018-08-03T09:20:19.935Z,5.90
2018-08-03T09:22:48.795Z,6.37
2018-08-03T09:25:17.758Z,6.27
2018-08-03T09:27:46.370Z,5.90
2018-08-03T09:30:15.259Z,6.77
2018-08-03T09:32:44.072Z,5.97
2018-08-03T09:35:13.373Z,6.03
2018-08-03T09:37:42.186Z,5.77
2018-08-03T09:40:11.043Z,7.20
2018-08-03T09:42:39.875Z,6.30
2018-08-03T09:45:08.570Z,6.73
2018-08-03T09:47:37.739Z,5.87
2018-08-03T09:50:06.632Z,6.17
2018-08-03T09:52:35.481Z,6.13
2018-08-03T09:55:04.386Z,6.53
2018-08-03T09:57:33.225Z,6.07
2018-08-03T10:00:02.218Z,4.83
2018-08-03T10:02:31.296Z,5.60
2018-08-03T10:05:00.083Z,5.80
2018-08-03T10:07:29.187Z,5.27
2018-08-03T10:09:57.976Z,5.13
2018-08-03T10:12:26.850Z,5.97
2018-08-03T10:14:55.695Z,5.80
2018-08-03T10:17:24.318Z,5.57
2018-08-03T10:19:53.102Z,4.90
2018-08-03T10:22:22.222Z,5.00
2018-08-03T10:24:50.904Z,5.63
2018-08-03T10:27:19.727Z,5.00
2018-08-03T10:29:48.652Z,5.00
2018-08-03T10:32:17.435Z,5.13
2018-08-03T10:34:46.272Z,6.03
2018-08-03T10:37:15.107Z,5.70
2018-08-03T10:39:43.786Z,5.70
2018-08-03T10:42:12.818Z,5.53
2018-08-03T10:44:41.728Z,5.57
2018-08-03T10:47:10.555Z,4.63
2018-08-03T10:49:39.386Z,5.40
2018-08-03T10:52:08.237Z,5.67
2018-08-03T10:54:37.143Z,5.63
2018-08-03T10:57:06.058Z,5.57
2018-08-03T10:59:34.839Z,5.17
2018-08-03T11:02:03.902Z,5.37
2018-08-03T11:04:32.708Z,5.23
2018-08-03T11:07:01.398Z,4.87
2018-08-03T11:09:30.075Z,5.17
2018-08-03T11:11:58.738Z,5.87
2018-08-03T11:14:27.621Z,4.80
2018-08-03T11:16:56.424Z,5.90
2018-08-03T11:19:25.332Z,6.17
2018-08-03T11:21:54.150Z,6.50
2018-08-03T11:24:23.113Z,6.60
2018-08-03T11:26:51.916Z,6.93
2018-08-03T11:29:20.679Z,6.27
2018-08-03T11:31:49.538Z,7.30
2018-08-03T11:34:18.671Z,6.33
2018-08-03T11:36:47.829Z,6.27
2018-08-03T11:39:16.513Z,6.60
2018-08-03T11:41:45.364Z,6.90
2018-08-03T11:44:14.225Z,6.27
2018-08-03T11:46:43.268Z,6.77
2018-08-03T11:49:12.052Z,6.40
2018-08-03T11:51:40.945Z,5.77
2018-08-03T11:54:09.622Z,5.57
2018-08-03T11:56:38.415Z,6.53
2018-08-03T11:59:07.188Z,6.13
2018-08-03T12:01:36.379Z,5.60
2018-08-03T12:04:05.602Z,6.43
2018-08-03T12:06:34.802Z,6.53
2018-08-03T12:09:04.995Z,6.30
2018-08-03T12:11:33.824Z,6.83
2018-08-03T12:14:02.769Z,6.10
2018-08-03T12:16:31.683Z,6.40
2018-08-03T12:19:00.542Z,6.23
2018-08-03T12:21:30.118Z,6.50
2018-08-03T12:23:58.983Z,5.40
2018-08-03T12:26:27.791Z,6.00
2018-08-03T12:28:56.619Z,5.97
2018-08-03T12:31:25.614Z,5.23
2018-08-03T12:33:54.410Z,5.80
2018-08-03T12:36:23.269Z,5.90
2018-08-03T12:38:52.168Z,6.20
2018-08-03T12:41:21.204Z,5.80
2018-08-03T12:43:50.120Z,6.10
2018-08-03T12:46:18.971Z,5.73
2018-08-03T12:48:47.755Z,5.93
2018-08-03T12:51:16.594Z,6.17
2018-08-03T12:53:45.485Z,6.07
2018-08-03T12:56:14.480Z,5.23
2018-08-03T12:58:43.282Z,5.50
2018-08-03T13:01:11.893Z,6.10
2018-08-03T13:03:40.755Z,5.93
2018-08-03T13:06:09.612Z,5.87
2018-08-03T13:08:38.496Z,6.20
2018-08-03T13:11:07.349Z,5.23
2018-08-03T13:13:36.187Z,5.10
2018-08-03T13:16:05.089Z,4.97
2018-08-03T13:18:34.016Z,5.00
2018-08-03T13:21:41.578Z,5.40
2018-08-03T13:24:10.451Z,4.87
2018-08-03T13:26:39.306Z,5.20
2018-08-03T13:29:08.215Z,5.47
2018-08-03T13:31:37.069Z,5.43
2018-08-03T13:34:06.107Z,5.17
2018-08-03T13:36:35.190Z,5.33
2018-08-03T13:39:07.257Z,5.10
2018-08-03T13:41:36.450Z,6.00
2018-08-03T13:44:05.363Z,5.93
2018-08-03T13:46:34.274Z,5.93
2018-08-03T13:49:03.102Z,6.10
2018-08-03T13:51:31.920Z,5.97
2018-08-03T13:54:01.154Z,5.53
2018-08-03T13:56:30.044Z,4.97
2018-08-03T13:58:58.921Z,6.20
2018-08-03T14:01:44.538Z,5.27
2018-08-03T14:04:13.420Z,4.87
2018-08-03T14:06:42.309Z,5.00
2018-08-03T14:09:11.075Z,4.20
2018-08-03T14:11:39.969Z,4.00
2018-08-03T14:14:08.808Z,4.60
2018-08-03T14:16:37.831Z,4.67
2018-08-03T14:19:06.990Z,5.13
2018-08-03T14:21:35.859Z,4.40
2018-08-03T14:24:04.847Z,5.40
2018-08-03T14:26:33.671Z,5.23
2018-08-03T14:29:02.605Z,3.87
2018-08-03T14:31:31.550Z,5.13
2018-08-03T14:34:00.347Z,4.47
2018-08-03T14:36:29.423Z,5.50
2018-08-03T14:38:58.249Z,4.93
2018-08-03T14:41:27.115Z,4.90
2018-08-03T14:43:56.061Z,4.60
2018-08-03T14:46:24.830Z,4.77
2018-08-03T14:48:55.011Z,4.80
2018-08-03T14:53:41.223Z,4.43
2018-08-03T14:56:10.251Z,4.83
2018-08-03T14:58:39.037Z,4.40
2018-08-03T15:01:07.695Z,4.47
2018-08-03T15:03:36.539Z,3.90
2018-08-03T15:06:05.447Z,3.57
2018-08-03T15:08:34.164Z,3.40
2018-08-03T15:11:03.130Z,3.73
2018-08-03T15:13:31.948Z,3.63
2018-08-03T15:16:00.798Z,3.40
2018-08-03T15:18:29.703Z,3.60
2018-08-03T15:20:58.502Z,3.57
2018-08-03T15:23:27.273Z,3.67
2018-08-03T15:25:56.083Z,3.40
2018-08-03T15:28:24.854Z,3.80
2018-08-03T15:30:53.788Z,3.13
2018-08-03T15:33:22.774Z,3.83
2018-08-03T15:35:51.656Z,3.37
2018-08-03T15:38:20.480Z,3.60
2018-08-03T15:40:49.274Z,3.77
2018-08-03T15:43:17.947Z,3.00
2018-08-03T15:45:52.709Z,2.93
2018-08-03T15:48:21.531Z,2.97
2018-08-03T15:50:50.347Z,2.77
2018-08-03T15:53:19.184Z,3.20
2018-08-03T15:55:48.001Z,3.00
2018-08-03T15:58:16.823Z,3.20
2018-08-03T16:00:45.584Z,3.00
2018-08-03T16:03:14.487Z,2.70
2018-08-03T16:05:43.257Z,2.77
2018-08-03T16:08:12.111Z,2.50
2018-08-03T16:10:40.960Z,3.03
2018-08-03T16:13:09.750Z,2.93
2018-08-03T16:15:38.551Z,2.90
2018-08-03T16:18:07.330Z,2.50
2018-08-03T16:20:36.419Z,2.10
2018-08-03T16:23:05.201Z,2.47
2018-08-03T16:25:34.037Z,2.20
2018-08-03T16:28:02.726Z,2.97
2018-08-03T16:30:31.555Z,2.40
2018-08-03T16:33:00.419Z,2.93
2018-08-03T16:35:29.245Z,2.60
2018-08-03T16:37:58.040Z,2.63
2018-08-03T16:40:26.867Z,2.40
2018-08-03T16:42:55.671Z,2.50
2018-08-03T16:45:24.646Z,2.87
2018-08-03T16:47:53.463Z,2.67
2018-08-03T16:50:22.468Z,2.27
2018-08-03T16:52:51.328Z,2.40
2018-08-03T16:55:20.160Z,2.60
2018-08-03T16:57:49.178Z,3.00
2018-08-03T17:00:18.485Z,3.10
2018-08-03T17:02:47.971Z,2.47
2018-08-03T17:05:16.763Z,2.50
2018-08-03T17:07:45.650Z,2.87
2018-08-03T17:10:14.518Z,2.10
2018-08-03T17:12:43.198Z,2.23
2018-08-03T17:15:11.988Z,2.30
2018-08-03T17:17:40.840Z,2.23
2018-08-03T17:20:09.656Z,2.17
2018-08-03T17:22:38.563Z,2.50
2018-08-03T17:25:07.374Z,2.07
2018-08-03T17:27:36.218Z,1.80
2018-08-03T17:30:05.786Z,2.23
2018-08-03T17:32:34.598Z,2.30
2018-08-03T17:35:03.604Z,2.17
2018-08-03T17:37:32.455Z,1.97
2018-08-03T17:40:01.240Z,2.23
2018-08-03T17:42:30.114Z,2.10
2018-08-03T17:44:58.768Z,2.37
2018-08-03T17:47:27.639Z,1.90
2018-08-03T17:49:56.485Z,2.50
2018-08-03T17:52:25.117Z,2.13
2018-08-03T17:54:54.012Z,1.93
2018-08-03T17:57:22.945Z,1.93
2018-08-03T17:59:51.893Z,1.70
2018-08-03T18:02:20.673Z,1.80
2018-08-03T18:04:49.531Z,1.80
2018-08-03T18:07:18.280Z,1.73
2018-08-03T18:09:47.139Z,2.97
2018-08-03T18:12:16.032Z,1.73
2018-08-03T18:14:44.884Z,1.77
2018-08-03T18:17:13.666Z,1.50
2018-08-03T18:19:42.546Z,1.20
2018-08-03T18:22:11.352Z,1.50
2018-08-03T18:24:40.307Z,1.00
2018-08-03T18:27:09.126Z,1.40
2018-08-03T18:29:38.243Z,1.23
2018-08-03T18:32:08.170Z,1.10
2018-08-03T18:34:37.195Z,0.80
2018-08-03T18:37:06.436Z,1.00
2018-08-03T18:39:35.242Z,1.03
2018-08-03T18:42:04.607Z,1.47
2018-08-03T18:44:33.761Z,1.70
2018-08-03T18:47:02.935Z,1.00
2018-08-03T18:49:31.786Z,0.63
2018-08-03T18:52:01.148Z,0.90
2018-08-03T18:54:30.359Z,0.97
2018-08-03T18:56:59.360Z,0.90
2018-08-03T18:59:28.499Z,0.90
2018-08-03T19:01:57.782Z,1.13
2018-08-03T19:04:26.667Z,1.07
2018-08-03T19:06:55.500Z,0.90
2018-08-03T19:09:24.371Z,0.90
2018-08-03T19:11:54.232Z,0.70
2018-08-03T19:14:23.240Z,1.37
2018-08-03T19:16:52.093Z,0.83
2018-08-03T19:19:20.879Z,0.83
2018-08-03T19:21:49.753Z,0.90
2018-08-03T19:24:18.599Z,1.00
2018-08-03T19:26:47.472Z,1.00
2018-08-03T19:29:16.263Z,1.00
2018-08-03T19:31:45.125Z,0.73
2018-08-03T19:34:13.914Z,1.10
2018-08-03T19:36:43.122Z,0.87
2018-08-03T19:39:12.307Z,0.80
2018-08-03T19:41:41.095Z,0.80
2018-08-03T19:44:10.044Z,1.00
2018-08-03T19:46:38.835Z,0.80
2018-08-03T19:49:07.697Z,0.90
2018-08-03T19:51:36.538Z,0.80
2018-08-03T19:54:05.421Z,0.87
2018-08-03T19:56:34.682Z,0.80
2018-08-03T19:59:03.379Z,0.77
2018-08-03T20:01:32.171Z,0.70
2018-08-03T20:04:01.095Z,0.80
2018-08-03T20:06:29.974Z,0.87
2018-08-03T20:08:58.750Z,0.63
2018-08-03T20:11:27.632Z,1.10
2018-08-03T20:13:56.537Z,1.13
2018-08-03T20:16:25.374Z,1.07
2018-08-03T20:18:54.483Z,1.03
2018-08-03T20:21:23.298Z,1.10
2018-08-03T20:23:52.236Z,0.90
2018-08-03T20:26:21.082Z,0.80
2018-08-03T20:28:49.981Z,1.10
2018-08-03T20:31:18.826Z,0.80
2018-08-03T20:33:47.714Z,1.20
2018-08-03T20:36:16.571Z,1.10
2018-08-03T20:38:45.587Z,1.00
2018-08-03T20:41:14.430Z,1.60
2018-08-03T20:43:43.279Z,1.20
2018-08-03T20:46:12.259Z,1.27
2018-08-03T20:48:41.059Z,1.10
2018-08-03T20:51:09.931Z,1.13
2018-08-03T20:53:38.784Z,1.33
2018-08-03T20:56:07.678Z,0.97
2018-08-03T20:58:36.454Z,1.17
2018-08-03T21:01:05.311Z,1.13
2018-08-03T21:03:34.092Z,1.27
2018-08-03T21:06:02.873Z,1.00
2018-08-03T21:08:31.684Z,0.90
2018-08-03T21:11:00.504Z,0.70
2018-08-03T21:13:29.321Z,0.70
2018-08-03T21:15:58.070Z,0.80
2018-08-03T21:18:26.970Z,0.90
2018-08-03T21:20:55.803Z,0.93
2018-08-03T21:23:24.687Z,1.00
2018-08-03T21:25:53.285Z,0.70
2018-08-03T21:28:22.199Z,0.80
2018-08-03T21:30:51.072Z,1.00
2018-08-03T21:33:19.895Z,0.90
2018-08-03T21:35:48.712Z,1.13
2018-08-03T21:38:17.540Z,0.97
2018-08-03T21:40:46.346Z,1.10
2018-08-03T21:43:15.770Z,1.03
2018-08-03T21:45:50.611Z,1.00
2018-08-03T21:48:19.426Z,1.00
2018-08-03T21:50:48.257Z,1.00
2018-08-03T21:53:17.095Z,0.97
2018-08-03T21:55:45.947Z,1.30
2018-08-03T21:58:14.747Z,1.20
2018-08-03T22:00:43.593Z,1.30
2018-08-03T22:03:12.380Z,1.40
2018-08-03T22:05:41.254Z,1.17
2018-08-03T22:08:10.023Z,1.30
2018-08-03T22:10:38.857Z,1.40
2018-08-03T22:13:08.028Z,1.07
2018-08-03T22:15:36.885Z,1.10
2018-08-03T22:18:06.054Z,1.30
2018-08-03T22:20:34.932Z,1.03
2018-08-03T22:23:03.782Z,1.53
2018-08-03T22:25:32.668Z,1.60
2018-08-03T22:28:01.436Z,1.53
2018-08-03T22:30:30.305Z,1.47
2018-08-03T22:32:58.975Z,1.53
2018-08-03T22:35:27.832Z,1.50
2018-08-03T22:37:56.656Z,1.43
2018-08-03T22:40:25.442Z,1.27
2018-08-03T22:42:54.398Z,1.17
2018-08-03T22:45:29.092Z,1.33
2018-08-03T22:47:57.893Z,1.30
2018-08-03T22:50:26.656Z,1.50
2018-08-03T22:52:55.567Z,1.40
2018-08-03T22:55:24.343Z,1.53
2018-08-03T22:57:53.011Z,1.60
2018-08-03T23:00:21.795Z,1.53
2018-08-03T23:02:50.607Z,1.40
2018-08-03T23:05:19.510Z,1.80
2018-08-03T23:07:48.321Z,1.30
2018-08-03T23:10:17.173Z,1.80
2018-08-03T23:12:45.856Z,1.97
2018-08-03T23:15:14.633Z,2.63
2018-08-03T23:17:43.673Z,2.63
2018-08-03T23:20:12.465Z,2.10
2018-08-03T23:22:41.326Z,2.60
2018-08-03T23:25:10.295Z,2.67
2018-08-03T23:27:39.128Z,2.80
2018-08-03T23:30:10.035Z,2.70
2018-08-03T23:32:39.474Z,2.03
2018-08-03T23:35:08.642Z,2.57
2018-08-03T23:37:37.768Z,3.03
2018-08-03T23:40:06.465Z,2.80
2018-08-03T23:42:35.975Z,3.10
2018-08-03T23:45:05.902Z,3.00
2018-08-03T23:47:34.985Z,2.90
2018-08-03T23:50:05.104Z,2.93
2018-08-03T23:52:34.014Z,2.70
2018-08-03T23:55:02.904Z,3.13
2018-08-03T23:57:31.699Z,3.10
